createdAt,value
2023-02-22T00:02:45.295Z,9.08
2023-02-22T00:05:53.877Z,9.04
2023-02-22T00:09:00.166Z,9.15
2023-02-22T00:12:05.447Z,9.15
2023-02-22T00:15:13.542Z,9.16
2023-02-22T00:18:19.887Z,9.14
2023-02-22T00:21:25.619Z,9.19
2023-02-22T00:24:33.054Z,9.20
2023-02-22T00:27:38.587Z,9.17
2023-02-22T00:30:44.188Z,9.18
2023-02-22T00:33:50.139Z,9.19
2023-02-22T00:36:55.755Z,9.06
2023-02-22T00:40:00.922Z,9.09
2023-02-22T00:43:08.013Z,9.11
2023-02-22T00:46:14.209Z,9.11
2023-02-22T00:49:19.900Z,9.07
2023-02-22T00:52:28.553Z,9.08
2023-02-22T00:55:36.608Z,9.19
2023-02-22T00:58:41.941Z,9.09
2023-02-22T01:01:47.844Z,9.09
2023-02-22T01:04:53.079Z,9.11
2023-02-22T01:08:00.585Z,9.11
2023-02-22T01:11:06.121Z,9.14
2023-02-22T01:14:11.921Z,9.15
2023-02-22T01:17:17.061Z,9.22
2023-02-22T01:20:23.693Z,9.25
2023-02-22T01:23:28.969Z,9.11
2023-02-22T01:26:36.307Z,9.11
2023-02-22T01:29:41.576Z,9.17
2023-02-22T01:32:47.273Z,9.13
2023-02-22T01:35:53.196Z,9.14
2023-02-22T01:38:58.471Z,9.15
2023-02-22T01:42:05.762Z,9.13
2023-02-22T01:45:53.406Z,9.13
2023-02-22T01:49:10.643Z,9.09
2023-02-22T01:52:21.231Z,9.07
2023-02-22T01:55:27.167Z,9.16
2023-02-22T01:58:36.134Z,9.17
2023-02-22T02:01:46.138Z,9.11
2023-02-22T02:04:54.536Z,9.25
2023-02-22T02:08:05.948Z,9.14
2023-02-22T02:11:11.416Z,9.16
2023-02-22T02:14:16.957Z,9.19
2023-02-22T02:17:23.914Z,9.19
2023-02-22T02:20:49.580Z,9.13
2023-02-22T02:24:05.111Z,9.17
2023-02-22T02:27:12.180Z,9.19
2023-02-22T02:30:32.866Z,9.13
2023-02-22T02:33:49.959Z,9.16
2023-02-22T02:37:21.185Z,9.12
2023-02-22T02:40:52.367Z,9.14
2023-02-22T02:44:11.728Z,9.17
2023-02-22T02:47:35.961Z,9.08
2023-02-22T02:50:47.175Z,9.10
2023-02-22T02:53:53.579Z,9.06
2023-02-22T02:56:58.866Z,9.20
2023-02-22T03:00:22.918Z,9.11
2023-02-22T03:03:56.046Z,9.18
2023-02-22T03:07:03.617Z,9.08
2023-02-22T03:10:33.468Z,9.16
2023-02-22T03:13:51.080Z,9.10
2023-02-22T03:17:12.620Z,9.11
2023-02-22T03:21:00.806Z,9.07
2023-02-22T03:24:36.496Z,9.07
2023-02-22T03:27:47.765Z,9.09
2023-02-22T03:31:06.019Z,9.13
2023-02-22T03:34:19.576Z,9.23
2023-02-22T03:37:34.257Z,9.25
2023-02-22T03:40:48.999Z,9.14
2023-02-22T03:44:17.730Z,9.20
2023-02-22T03:47:33.955Z,9.33
2023-02-22T03:50:39.439Z,9.27
2023-02-22T03:53:48.246Z,9.23
2023-02-22T03:57:01.015Z,9.20
2023-02-22T04:00:12.314Z,9.19
2023-02-22T04:03:24.192Z,9.27
2023-02-22T04:06:31.392Z,9.22
2023-02-22T04:09:38.877Z,9.20
2023-02-22T04:12:44.585Z,9.29
2023-02-22T04:15:50.130Z,9.19
2023-02-22T04:18:57.062Z,9.21
2023-02-22T04:22:03.009Z,9.17
2023-02-22T04:25:13.141Z,9.31
2023-02-22T04:28:19.456Z,9.22
2023-02-22T04:31:34.039Z,9.22
2023-02-22T04:34:39.587Z,9.20
2023-02-22T04:37:45.107Z,9.26
2023-02-22T04:40:50.559Z,9.33
2023-02-22T04:43:55.879Z,9.33
2023-02-22T04:47:03.945Z,9.35
2023-02-22T04:50:11.371Z,9.38
2023-02-22T04:53:17.431Z,9.34
2023-02-22T04:56:23.643Z,9.37
2023-02-22T04:59:29.741Z,9.29
2023-02-22T05:02:40.260Z,9.31
2023-02-22T05:05:45.740Z,9.32
2023-02-22T05:08:51.223Z,9.25
2023-02-22T05:11:56.392Z,9.30
2023-02-22T05:15:01.690Z,9.29
2023-02-22T05:18:06.733Z,9.17
2023-02-22T05:21:12.970Z,9.15
2023-02-22T05:24:18.390Z,9.05
2023-02-22T05:27:23.638Z,8.90
2023-02-22T05:30:33.226Z,8.98
2023-02-22T05:33:40.004Z,9.08
2023-02-22T05:36:47.372Z,9.19
2023-02-22T05:39:53.532Z,9.15
2023-02-22T05:43:02.460Z,8.92
2023-02-22T05:46:08.375Z,9.07
2023-02-22T05:49:14.108Z,9.16
2023-02-22T05:52:19.109Z,9.11
2023-02-22T05:55:24.883Z,9.21
2023-02-22T05:58:30.096Z,9.11
2023-02-22T06:01:35.251Z,9.15
2023-02-22T06:04:40.609Z,9.15
2023-02-22T06:07:46.498Z,9.13
2023-02-22T06:10:51.868Z,9.14
2023-02-22T06:13:57.108Z,9.11
2023-02-22T06:17:03.159Z,9.08
2023-02-22T06:20:14.437Z,9.16
2023-02-22T06:23:19.954Z,9.11
2023-02-22T06:26:25.162Z,9.09
2023-02-22T06:29:30.612Z,9.06
2023-02-22T06:32:35.903Z,9.06
2023-02-22T06:35:41.687Z,9.19
2023-02-22T06:38:47.346Z,9.01
2023-02-22T06:41:55.432Z,9.08
2023-02-22T06:45:01.257Z,9.07
2023-02-22T06:48:06.571Z,8.92
2023-02-22T06:51:12.036Z,8.83
2023-02-22T06:54:17.250Z,8.79
2023-02-22T06:57:22.736Z,9.01
2023-02-22T07:00:30.236Z,8.98
2023-02-22T07:03:36.197Z,8.84
2023-02-22T07:06:47.185Z,9.03
2023-02-22T07:09:52.463Z,9.11
2023-02-22T07:12:58.410Z,9.22
2023-02-22T07:16:03.959Z,9.17
2023-02-22T07:19:09.404Z,9.02
2023-02-22T07:22:15.377Z,8.98
2023-02-22T07:25:21.474Z,9.03
2023-02-22T07:28:27.185Z,9.15
2023-02-22T07:31:39.603Z,9.33
2023-02-22T07:34:45.483Z,9.42
2023-02-22T07:37:51.088Z,9.46
2023-02-22T07:40:58.322Z,9.45
2023-02-22T07:44:04.181Z,9.42
2023-02-22T07:47:12.894Z,9.43
2023-02-22T07:50:20.199Z,9.48
2023-02-22T07:53:30.793Z,9.56
2023-02-22T07:56:36.192Z,9.39
2023-02-22T07:59:41.568Z,9.56
2023-02-22T08:02:47.343Z,9.65
2023-02-22T08:05:56.935Z,9.70
2023-02-22T08:09:02.756Z,9.69
2023-02-22T08:12:08.692Z,9.79
2023-02-22T08:15:26.266Z,9.62
2023-02-22T08:18:31.672Z,9.88
2023-02-22T08:21:37.234Z,9.90
2023-02-22T08:24:43.079Z,9.97
2023-02-22T08:27:48.993Z,10.16
2023-02-22T08:30:54.327Z,10.08
2023-02-22T08:34:01.385Z,10.26
2023-02-22T08:37:06.770Z,10.24
2023-02-22T08:40:15.048Z,10.23
2023-02-22T08:43:21.751Z,10.30
2023-02-22T08:46:27.054Z,10.54
2023-02-22T08:49:32.528Z,10.60
2023-02-22T08:52:37.979Z,10.46
2023-02-22T08:55:44.108Z,10.50
2023-02-22T08:58:49.637Z,10.66
2023-02-22T09:01:55.743Z,10.90
2023-02-22T09:05:01.167Z,11.04
2023-02-22T09:08:06.749Z,10.76
2023-02-22T09:11:12.654Z,11.08
2023-02-22T09:14:18.282Z,10.97
2023-02-22T09:17:23.660Z,11.02
2023-02-22T09:20:29.647Z,11.17
2023-02-22T09:23:35.457Z,11.36
2023-02-22T09:26:47.487Z,11.40
2023-02-22T09:29:53.312Z,11.46
2023-02-22T09:33:02.008Z,11.74
2023-02-22T09:36:07.973Z,11.66
2023-02-22T09:39:15.631Z,11.61
2023-02-22T09:42:33.866Z,11.77
2023-02-22T09:46:06.069Z,11.66
2023-02-22T09:49:20.649Z,11.87
2023-02-22T09:52:31.720Z,12.05
2023-02-22T09:55:42.595Z,12.08
2023-02-22T09:58:55.569Z,12.32
2023-02-22T10:02:20.310Z,12.23
2023-02-22T10:05:38.040Z,12.36
2023-02-22T10:08:45.280Z,12.34
2023-02-22T10:11:56.094Z,12.24
2023-02-22T10:15:38.737Z,12.18
2023-02-22T10:18:49.651Z,12.01
2023-02-22T10:22:16.322Z,12.10
2023-02-22T10:25:26.181Z,12.27
2023-02-22T10:28:53.173Z,12.43
2023-02-22T10:32:02.949Z,12.21
2023-02-22T10:35:28.508Z,12.36
2023-02-22T10:38:35.224Z,12.27
2023-02-22T10:41:54.737Z,12.40
2023-02-22T10:45:01.095Z,12.59
2023-02-22T10:48:27.055Z,12.56
2023-02-22T10:51:33.116Z,12.21
2023-02-22T10:54:42.689Z,12.34
2023-02-22T10:57:52.039Z,12.71
2023-02-22T11:00:58.257Z,12.80
2023-02-22T11:04:14.964Z,12.66
2023-02-22T11:07:34.261Z,12.80
2023-02-22T11:10:39.832Z,12.68
2023-02-22T11:13:55.396Z,12.71
2023-02-22T11:17:06.886Z,12.85
2023-02-22T11:20:27.031Z,12.70
2023-02-22T11:23:33.248Z,12.80
2023-02-22T11:26:56.584Z,12.88
2023-02-22T11:30:25.677Z,13.06
2023-02-22T11:33:31.868Z,12.91
2023-02-22T11:36:43.082Z,12.94
2023-02-22T11:40:04.216Z,13.04
2023-02-22T11:43:20.740Z,13.06
2023-02-22T11:46:32.877Z,13.16
2023-02-22T11:49:45.982Z,13.26
2023-02-22T11:53:14.915Z,13.33
2023-02-22T11:56:40.604Z,13.44
2023-02-22T12:00:12.585Z,13.25
2023-02-22T12:03:55.332Z,12.99
2023-02-22T12:07:30.413Z,12.84
2023-02-22T12:10:55.543Z,13.33
2023-02-22T12:14:13.262Z,13.66
2023-02-22T12:17:43.583Z,13.18
2023-02-22T12:20:56.855Z,13.31
2023-02-22T12:24:14.621Z,13.37
2023-02-22T12:27:34.424Z,13.56
2023-02-22T12:30:44.516Z,13.76
2023-02-22T12:33:54.485Z,13.69
2023-02-22T12:37:21.809Z,13.39
2023-02-22T12:40:58.590Z,13.52
2023-02-22T12:44:09.690Z,13.13
2023-02-22T12:47:21.911Z,13.17
2023-02-22T12:50:34.699Z,12.94
2023-02-22T12:53:45.392Z,12.99
2023-02-22T12:56:59.931Z,13.18
2023-02-22T13:00:47.422Z,13.25
2023-02-22T13:03:56.111Z,13.21
2023-02-22T13:07:23.210Z,13.28
2023-02-22T13:10:53.162Z,13.19
2023-02-22T13:14:14.975Z,13.02
2023-02-22T13:17:36.208Z,13.07
2023-02-22T13:20:54.122Z,13.25
2023-02-22T13:24:14.011Z,13.46
2023-02-22T13:27:38.937Z,13.42
2023-02-22T13:30:57.615Z,13.38
2023-02-22T13:34:20.556Z,13.35
2023-02-22T13:37:50.932Z,13.32
2023-02-22T13:41:35.484Z,13.23
2023-02-22T13:45:08.159Z,13.23
2023-02-22T13:48:20.303Z,13.10
2023-02-22T13:51:46.791Z,13.27
2023-02-22T13:55:03.099Z,13.31
2023-02-22T13:58:12.014Z,13.03
2023-02-22T14:01:55.225Z,13.09
2023-02-22T14:05:00.688Z,13.06
2023-02-22T14:08:08.312Z,13.24
2023-02-22T14:11:19.200Z,13.34
2023-02-22T14:14:25.056Z,13.58
2023-02-22T14:17:31.030Z,13.74
2023-02-22T14:20:40.437Z,13.77
2023-02-22T14:23:51.908Z,13.57
2023-02-22T14:27:03.704Z,13.51
2023-02-22T14:30:26.461Z,13.41
2023-02-22T14:33:57.627Z,13.46
2023-02-22T14:37:20.064Z,13.36
2023-02-22T14:40:29.449Z,13.30
2023-02-22T14:43:38.453Z,13.43
2023-02-22T14:46:50.356Z,13.41
2023-02-22T14:50:05.676Z,13.38
2023-02-22T14:53:32.582Z,13.39
2023-02-22T14:57:15.056Z,13.39
2023-02-22T15:00:32.666Z,13.46
2023-02-22T15:03:38.290Z,13.33
2023-02-22T15:06:44.568Z,13.25
2023-02-22T15:09:50.197Z,13.35
2023-02-22T15:13:10.850Z,13.15
2023-02-22T15:16:16.468Z,13.06
2023-02-22T15:19:32.127Z,13.03
2023-02-22T15:22:37.824Z,13.15
2023-02-22T15:25:49.548Z,13.05
2023-02-22T15:28:56.937Z,12.98
2023-02-22T15:32:02.470Z,12.92
2023-02-22T15:35:23.724Z,12.98
2023-02-22T15:38:30.531Z,12.91
2023-02-22T15:41:36.388Z,12.70
2023-02-22T15:44:43.780Z,12.61
2023-02-22T15:47:50.202Z,12.60
2023-02-22T15:51:07.451Z,12.50
2023-02-22T15:54:26.570Z,12.38
2023-02-22T15:57:35.853Z,12.36
2023-02-22T16:00:58.113Z,12.30
2023-02-22T16:04:03.957Z,12.21
2023-02-22T16:07:17.395Z,12.21
2023-02-22T16:10:33.840Z,12.06
2023-02-22T16:13:41.654Z,12.02
2023-02-22T16:16:47.008Z,11.92
2023-02-22T16:19:53.438Z,11.87
2023-02-22T16:22:58.794Z,11.86
2023-02-22T16:26:26.804Z,11.79
2023-02-22T16:29:32.411Z,11.67
2023-02-22T16:32:37.414Z,11.55
2023-02-22T16:35:52.119Z,11.60
2023-02-22T16:38:57.538Z,11.54
2023-02-22T16:42:05.470Z,11.50
2023-02-22T16:45:16.717Z,11.45
2023-02-22T16:48:25.475Z,11.35
2023-02-22T16:51:40.904Z,11.30
2023-02-22T16:54:46.634Z,11.20
2023-02-22T16:57:57.044Z,11.13
2023-02-22T17:01:02.562Z,11.08
2023-02-22T17:04:22.389Z,10.99
2023-02-22T17:07:31.248Z,10.99
2023-02-22T17:10:37.048Z,11.04
2023-02-22T17:13:42.296Z,11.10
2023-02-22T17:16:47.820Z,11.03
2023-02-22T17:19:55.267Z,10.98
2023-02-22T17:23:08.428Z,10.99
2023-02-22T17:26:16.093Z,10.93
2023-02-22T17:29:21.821Z,10.80
2023-02-22T17:32:27.223Z,10.94
2023-02-22T17:35:37.280Z,10.94
2023-02-22T17:38:43.360Z,10.88
2023-02-22T17:41:55.402Z,10.91
2023-02-22T17:45:00.674Z,10.87
2023-02-22T17:48:06.143Z,10.90
2023-02-22T17:51:12.706Z,10.92
2023-02-22T17:54:18.099Z,10.84
2023-02-22T17:57:23.472Z,10.88
2023-02-22T18:00:33.529Z,10.77
2023-02-22T18:03:40.624Z,10.74
2023-02-22T18:06:47.023Z,10.71
2023-02-22T18:09:52.539Z,10.67
2023-02-22T18:13:02.290Z,10.61
2023-02-22T18:16:10.280Z,10.56
2023-02-22T18:19:21.023Z,10.48
2023-02-22T18:22:28.300Z,10.45
2023-02-22T18:25:35.865Z,10.46
2023-02-22T18:28:41.559Z,10.37
2023-02-22T18:31:47.217Z,10.44
2023-02-22T18:34:52.576Z,10.27
2023-02-22T18:37:58.050Z,10.28
2023-02-22T18:41:07.152Z,10.25
2023-02-22T18:44:12.775Z,10.26
2023-02-22T18:47:20.155Z,10.26
2023-02-22T18:50:26.409Z,10.27
2023-02-22T18:53:33.292Z,10.26
2023-02-22T18:56:40.539Z,10.28
2023-02-22T18:59:46.204Z,10.10
2023-02-22T19:02:53.989Z,10.16
2023-02-22T19:06:03.898Z,10.23
2023-02-22T19:09:09.209Z,10.30
2023-02-22T19:12:17.300Z,10.22
2023-02-22T19:15:23.768Z,10.25
2023-02-22T19:18:29.116Z,10.22
2023-02-22T19:21:34.594Z,10.22
2023-02-22T19:24:40.152Z,9.95
2023-02-22T19:27:45.620Z,9.65
2023-02-22T19:30:51.055Z,9.68
2023-02-22T19:34:00.808Z,9.79
2023-02-22T19:37:06.754Z,9.93
2023-02-22T19:40:17.224Z,9.81
2023-02-22T19:43:22.626Z,9.86
2023-02-22T19:46:28.925Z,9.66
2023-02-22T19:49:37.226Z,9.72
2023-02-22T19:52:43.009Z,9.59
2023-02-22T19:55:48.743Z,9.64
2023-02-22T19:58:56.358Z,9.73
2023-02-22T20:02:02.121Z,9.80
2023-02-22T20:05:12.553Z,9.72
2023-02-22T20:08:18.413Z,9.44
2023-02-22T20:11:25.637Z,9.42
2023-02-22T20:14:31.196Z,9.38
2023-02-22T20:17:36.343Z,9.21
2023-02-22T20:20:43.162Z,9.23
2023-02-22T20:23:49.017Z,9.30
2023-02-22T20:26:56.854Z,9.21
2023-02-22T20:30:05.685Z,9.26
2023-02-22T20:33:14.642Z,9.34
2023-02-22T20:36:23.292Z,9.11
2023-02-22T20:39:29.258Z,8.93
2023-02-22T20:42:35.612Z,8.99
2023-02-22T20:45:43.272Z,8.96
2023-02-22T20:48:50.133Z,9.04
2023-02-22T20:51:57.018Z,9.00
2023-02-22T20:55:05.483Z,9.21
2023-02-22T20:58:11.060Z,9.30
2023-02-22T21:01:20.786Z,9.44
2023-02-22T21:04:31.478Z,9.32
2023-02-22T21:07:40.368Z,9.45
2023-02-22T21:10:48.819Z,9.31
2023-02-22T21:13:54.914Z,9.28
2023-02-22T21:17:03.801Z,9.25
2023-02-22T21:20:13.097Z,9.16
2023-02-22T21:23:18.807Z,9.14
2023-02-22T21:26:30.469Z,9.17
2023-02-22T21:29:36.196Z,9.32
2023-02-22T21:32:42.190Z,9.43
2023-02-22T21:35:48.164Z,9.53
2023-02-22T21:39:00.212Z,9.57
2023-02-22T21:42:07.455Z,9.42
2023-02-22T21:45:13.299Z,9.45
2023-02-22T21:48:19.768Z,9.34
2023-02-22T21:51:31.773Z,9.39
2023-02-22T21:54:37.450Z,9.35
2023-02-22T21:57:43.038Z,9.48
2023-02-22T22:00:48.930Z,9.27
2023-02-22T22:03:55.051Z,9.23
2023-02-22T22:07:04.236Z,9.24
2023-02-22T22:10:14.925Z,9.39
2023-02-22T22:13:23.554Z,9.54
2023-02-22T22:16:30.205Z,9.51
2023-02-22T22:19:42.039Z,9.49
2023-02-22T22:22:47.433Z,9.49
2023-02-22T22:26:02.618Z,9.44
2023-02-22T22:29:10.810Z,9.53
2023-02-22T22:32:16.487Z,9.57
2023-02-22T22:35:22.952Z,9.64
2023-02-22T22:38:29.740Z,9.54
2023-02-22T22:41:35.086Z,9.52
2023-02-22T22:44:43.528Z,9.57
2023-02-22T22:47:48.992Z,9.65
2023-02-22T22:51:06.867Z,9.73
2023-02-22T22:54:12.762Z,9.68
2023-02-22T22:57:18.281Z,9.66
2023-02-22T23:00:29.822Z,9.57
2023-02-22T23:03:38.347Z,9.58
2023-02-22T23:06:52.627Z,9.61
2023-02-22T23:09:58.224Z,9.54
2023-02-22T23:13:04.272Z,9.42
2023-02-22T23:16:12.392Z,9.42
2023-02-22T23:19:19.527Z,9.37
2023-02-22T23:22:24.879Z,9.50
2023-02-22T23:25:30.658Z,9.32
2023-02-22T23:28:38.788Z,9.20
2023-02-22T23:31:44.580Z,9.13
2023-02-22T23:34:50.125Z,9.14
2023-02-22T23:37:58.554Z,9.19
2023-02-22T23:41:06.328Z,9.28
2023-02-22T23:44:17.943Z,9.28
2023-02-22T23:47:23.497Z,9.31
2023-02-22T23:50:31.306Z,9.32
2023-02-22T23:53:38.746Z,9.40
2023-02-22T23:56:47.503Z,9.45
2023-02-22T23:59:52.779Z,9.30
